createdAt,value
2022-08-29T00:00:00.175Z,16.3
2022-08-29T00:05:00.188Z,16.3
2022-08-29T00:10:00.195Z,16.2
2022-08-29T00:15:00.186Z,16.2
2022-08-29T00:20:00.190Z,16.2
2022-08-29T00:25:00.173Z,16.2
2022-08-29T00:30:00.175Z,16.2
2022-08-29T00:35:00.192Z,16.2
2022-08-29T00:40:00.360Z,16.1
2022-08-29T00:45:00.169Z,16.1
2022-08-29T00:50:00.175Z,16.1
2022-08-29T00:55:00.164Z,16.1
2022-08-29T01:00:00.243Z,16
2022-08-29T01:05:00.302Z,16
2022-08-29T01:10:00.181Z,16
2022-08-29T01:15:00.158Z,16
2022-08-29T01:20:00.188Z,16
2022-08-29T01:25:00.178Z,15.9
2022-08-29T01:30:00.164Z,15.9
2022-08-29T01:35:00.181Z,15.8
2022-08-29T01:40:00.238Z,15.8
2022-08-29T01:45:00.157Z,15.8
2022-08-29T01:50:00.266Z,15.8
2022-08-29T01:55:00.159Z,15.8
2022-08-29T02:00:00.173Z,15.8
2022-08-29T02:05:00.466Z,15.8
2022-08-29T02:10:00.211Z,15.8
2022-08-29T02:15:00.173Z,15.8
2022-08-29T02:20:00.203Z,15.8
2022-08-29T02:25:00.162Z,15.8
2022-08-29T02:30:00.223Z,15.6
2022-08-29T02:35:00.157Z,15.6
2022-08-29T02:40:00.322Z,15.4
2022-08-29T02:45:00.155Z,15.4
2022-08-29T02:50:00.155Z,15.4
2022-08-29T02:55:00.158Z,15.4
2022-08-29T03:00:00.202Z,15.5
2022-08-29T03:05:00.167Z,15.6
2022-08-29T03:10:00.169Z,15.6
2022-08-29T03:15:00.157Z,15.6
2022-08-29T03:20:00.200Z,15.6
2022-08-29T03:25:00.149Z,15.7
2022-08-29T03:30:00.195Z,15.7
2022-08-29T03:35:00.155Z,15.7
2022-08-29T03:40:00.271Z,15.7
2022-08-29T03:45:00.158Z,15.6
2022-08-29T03:50:00.199Z,15.6
2022-08-29T03:55:00.182Z,15.6
2022-08-29T04:00:00.171Z,15.4
2022-08-29T04:05:02.589Z,15.4
2022-08-29T04:10:00.168Z,15.4
2022-08-29T04:15:00.163Z,15.4
2022-08-29T04:20:00.166Z,15.3
2022-08-29T04:25:00.164Z,15.3
2022-08-29T04:30:00.183Z,15.2
2022-08-29T04:35:00.161Z,15.2
2022-08-29T04:40:00.301Z,15.1
2022-08-29T04:45:00.158Z,15.1
2022-08-29T04:50:00.163Z,15.1
2022-08-29T04:55:00.169Z,15
2022-08-29T05:00:00.152Z,15
2022-08-29T05:05:00.171Z,15
2022-08-29T05:10:00.156Z,14.9
2022-08-29T05:15:00.180Z,15
2022-08-29T05:20:00.166Z,15.2
2022-08-29T05:25:00.155Z,15.4
2022-08-29T05:30:00.159Z,15.6
2022-08-29T05:35:00.185Z,15.8
2022-08-29T05:40:00.247Z,15.9
2022-08-29T05:45:00.154Z,15.9
2022-08-29T05:50:00.167Z,16.1
2022-08-29T05:55:00.162Z,16.2
2022-08-29T06:00:00.170Z,16.4
2022-08-29T06:05:00.162Z,16.6
2022-08-29T06:10:03.620Z,16.7
2022-08-29T06:15:00.176Z,16.9
2022-08-29T06:20:00.171Z,17
2022-08-29T06:25:00.174Z,17.1
2022-08-29T06:30:01.924Z,17.2
2022-08-29T06:35:00.156Z,17.4
2022-08-29T06:40:00.295Z,17.6
2022-08-29T06:45:00.158Z,17.8
2022-08-29T06:50:00.166Z,17.9
2022-08-29T06:55:00.163Z,18
2022-08-29T07:00:00.169Z,18.1
2022-08-29T07:05:00.167Z,18.3
2022-08-29T07:10:00.178Z,18.4
2022-08-29T07:15:00.180Z,18.6
2022-08-29T07:20:00.189Z,18.8
2022-08-29T07:25:00.253Z,18.9
2022-08-29T07:30:00.268Z,19.1
2022-08-29T07:35:00.274Z,19.4
2022-08-29T07:40:00.293Z,19.6
2022-08-29T07:45:00.290Z,19.8
2022-08-29T07:50:00.176Z,20.1
2022-08-29T07:55:00.194Z,20.3
2022-08-29T08:00:00.183Z,20.6
2022-08-29T08:05:00.163Z,20.8
2022-08-29T08:10:00.173Z,21
2022-08-29T08:15:00.164Z,21.2
2022-08-29T08:20:00.171Z,21.3
2022-08-29T08:25:00.165Z,21.6
2022-08-29T08:30:00.252Z,21.8
2022-08-29T08:35:00.159Z,22.1
2022-08-29T08:40:00.280Z,22.2
2022-08-29T08:45:00.163Z,22.6
2022-08-29T08:50:00.172Z,22.8
2022-08-29T08:55:00.165Z,23
2022-08-29T09:00:00.167Z,23.2
2022-08-29T09:05:00.163Z,23.4
2022-08-29T09:10:00.185Z,23.6
2022-08-29T09:15:00.157Z,23.8
2022-08-29T09:20:00.163Z,23.9
2022-08-29T09:25:00.156Z,24.1
2022-08-29T09:30:00.161Z,24.2
2022-08-29T09:35:09.499Z,24.2
2022-08-29T09:40:00.288Z,24.4
2022-08-29T09:45:00.157Z,24.8
2022-08-29T09:50:00.199Z,25.1
2022-08-29T09:55:00.161Z,25.1
2022-08-29T10:00:00.172Z,25.1
2022-08-29T10:05:00.158Z,25
2022-08-29T10:10:00.167Z,25.3
2022-08-29T10:15:00.160Z,25.6
2022-08-29T10:20:00.182Z,25.8
2022-08-29T10:25:00.155Z,25.8
2022-08-29T10:30:00.154Z,25.7
2022-08-29T10:35:00.158Z,25.8
2022-08-29T10:40:00.253Z,26.1
2022-08-29T10:45:00.187Z,26.3
2022-08-29T10:50:00.156Z,26.2
2022-08-29T10:55:00.151Z,26.2
2022-08-29T11:00:00.185Z,26.2
2022-08-29T11:05:00.161Z,26.4
2022-08-29T11:10:00.163Z,26.5
2022-08-29T11:15:00.162Z,26.5
2022-08-29T11:20:00.207Z,26.6
2022-08-29T11:25:00.159Z,26.8
2022-08-29T11:30:00.175Z,26.7
2022-08-29T11:35:00.156Z,26.8
2022-08-29T11:40:00.243Z,26.9
2022-08-29T11:45:00.158Z,26.6
2022-08-29T11:50:00.180Z,26.6
2022-08-29T11:55:00.166Z,26.9
2022-08-29T12:00:00.177Z,27.2
2022-08-29T12:05:00.156Z,27.2
2022-08-29T12:10:00.164Z,27.3
2022-08-29T12:15:00.176Z,27.2
2022-08-29T12:20:00.177Z,27
2022-08-29T12:25:00.172Z,26.5
2022-08-29T12:30:00.167Z,26.9
2022-08-29T12:35:02.530Z,27.1
2022-08-29T12:40:00.303Z,26.8
2022-08-29T12:45:00.429Z,26.8
2022-08-29T12:50:00.179Z,27
2022-08-29T12:55:00.228Z,27.4
2022-08-29T13:00:00.334Z,27.2
2022-08-29T13:05:00.169Z,27.2
2022-08-29T13:10:00.325Z,27.4
2022-08-29T13:15:00.173Z,27.5
2022-08-29T13:20:00.315Z,27.2
2022-08-29T13:25:00.175Z,27
2022-08-29T13:30:00.247Z,27.1
2022-08-29T13:35:00.171Z,27.4
2022-08-29T13:40:00.292Z,27.6
2022-08-29T13:45:00.209Z,27.8
2022-08-29T13:50:00.406Z,27.9
2022-08-29T13:55:00.290Z,27.8
2022-08-29T14:00:00.420Z,27.9
2022-08-29T14:05:00.431Z,27.9
2022-08-29T14:10:00.299Z,27.8
2022-08-29T14:15:02.923Z,27.6
2022-08-29T14:20:00.178Z,27.4
2022-08-29T14:25:00.174Z,27.4
2022-08-29T14:30:00.175Z,27.3
2022-08-29T14:35:00.172Z,27.3
2022-08-29T14:40:00.311Z,27.3
2022-08-29T14:45:00.185Z,27.1
2022-08-29T14:50:00.181Z,27.3
2022-08-29T14:55:00.187Z,27.1
2022-08-29T15:00:00.158Z,26.9
2022-08-29T15:05:00.171Z,26.7
2022-08-29T15:10:00.198Z,26.8
2022-08-29T15:15:00.166Z,26.6
2022-08-29T15:25:00.162Z,26.6
2022-08-29T15:30:00.167Z,26.4
2022-08-29T15:35:00.167Z,26.4
2022-08-29T15:40:00.290Z,26.3
2022-08-29T15:45:02.476Z,26.4
2022-08-29T15:50:00.185Z,26.2
2022-08-29T15:55:01.309Z,26.2
2022-08-29T16:00:00.199Z,26.2
2022-08-29T16:05:00.189Z,26
2022-08-29T16:10:00.359Z,25.9
2022-08-29T16:15:01.078Z,25.9
2022-08-29T16:20:00.184Z,25.9
2022-08-29T16:25:00.173Z,25.8
2022-08-29T16:30:00.326Z,25.8
2022-08-29T16:35:00.298Z,25.7
2022-08-29T16:40:00.467Z,25.8
2022-08-29T16:45:00.162Z,26.2
2022-08-29T16:50:00.258Z,26
2022-08-29T16:55:00.168Z,25.8
2022-08-29T17:00:00.493Z,25.6
2022-08-29T17:05:00.160Z,25.3
2022-08-29T17:10:00.299Z,25
2022-08-29T17:15:00.165Z,24.7
2022-08-29T17:20:00.161Z,24.5
2022-08-29T17:25:00.159Z,24.4
2022-08-29T17:30:00.210Z,24.1
2022-08-29T17:35:00.172Z,23.9
2022-08-29T17:40:00.421Z,23.7
2022-08-29T17:45:00.161Z,23.4
2022-08-29T17:50:00.218Z,23.1
2022-08-29T17:55:03.795Z,22.8
2022-08-29T18:00:00.193Z,22.4
2022-08-29T18:05:00.165Z,22.1
2022-08-29T18:10:00.201Z,21.8
2022-08-29T18:15:00.174Z,21.5
2022-08-29T18:20:00.162Z,21.2
2022-08-29T18:25:00.162Z,20.9
2022-08-29T18:30:00.167Z,20.6
2022-08-29T18:35:00.770Z,20.4
2022-08-29T18:40:00.301Z,20.1
2022-08-29T18:45:00.172Z,19.9
2022-08-29T18:50:00.170Z,19.6
2022-08-29T18:55:00.162Z,19.6
2022-08-29T19:00:00.179Z,19.4
2022-08-29T19:05:00.166Z,19.2
2022-08-29T19:10:00.200Z,19.1
2022-08-29T19:15:00.240Z,19.1
2022-08-29T19:20:00.179Z,19.1
2022-08-29T19:35:00.161Z,18.8
2022-08-29T19:40:00.292Z,18.7
2022-08-29T19:45:00.168Z,18.6
2022-08-29T19:50:00.180Z,18.5
2022-08-29T19:55:00.234Z,18.5
2022-08-29T20:00:00.161Z,18.4
2022-08-29T20:05:00.294Z,18.3
2022-08-29T20:10:00.172Z,18.3
2022-08-29T20:15:00.273Z,18.3
2022-08-29T20:20:00.229Z,18.4
2022-08-29T20:25:00.189Z,18.4
2022-08-29T20:30:00.217Z,18.6
2022-08-29T20:35:00.177Z,18.6
2022-08-29T20:40:00.251Z,18.6
2022-08-29T20:45:00.196Z,18.5
2022-08-29T20:50:00.166Z,18.4
2022-08-29T20:55:00.182Z,18.2
2022-08-29T21:00:00.168Z,18.2
2022-08-29T21:05:00.167Z,18.1
2022-08-29T21:10:00.167Z,18.1
2022-08-29T21:15:00.191Z,18.2
2022-08-29T21:20:00.179Z,18.2
2022-08-29T21:25:00.184Z,18.2
2022-08-29T21:30:00.209Z,18.3
2022-08-29T21:35:00.205Z,18.4
2022-08-29T21:40:00.248Z,18.4
2022-08-29T21:45:00.173Z,18.4
2022-08-29T21:50:00.210Z,18.4
2022-08-29T21:55:00.259Z,18.4
2022-08-29T22:00:00.188Z,18.3
2022-08-29T22:05:00.167Z,18.2
2022-08-29T22:10:00.201Z,18.1
2022-08-29T22:15:00.176Z,17.9
2022-08-29T22:20:00.188Z,17.7
2022-08-29T22:25:00.161Z,17.4
2022-08-29T22:30:00.177Z,17.2
2022-08-29T22:35:00.168Z,17.2
2022-08-29T22:40:00.293Z,17.1
2022-08-29T22:45:03.617Z,17.1
2022-08-29T22:50:00.171Z,17.2
2022-08-29T22:55:00.183Z,17.3
2022-08-29T23:00:00.188Z,17.3
2022-08-29T23:05:00.176Z,17.4
2022-08-29T23:10:00.186Z,17.4
2022-08-29T23:15:00.177Z,17.4
2022-08-29T23:20:00.178Z,17.5
2022-08-29T23:25:00.188Z,17.6
2022-08-29T23:30:00.189Z,17.6
2022-08-29T23:35:00.182Z,17.5
2022-08-29T23:40:00.311Z,17.3
2022-08-29T23:45:00.167Z,17.1
2022-08-29T23:50:00.176Z,16.9
2022-08-29T23:55:00.175Z,16.7
